createdAt,value
2022-11-22T00:00:30.709Z,3.80
2022-11-22T00:02:57.490Z,3.70
2022-11-22T00:05:24.262Z,3.70
2022-11-22T00:07:51.147Z,3.70
2022-11-22T00:10:18.191Z,3.70
2022-11-22T00:12:45.547Z,3.80
2022-11-22T00:15:12.957Z,3.80
2022-11-22T00:17:40.308Z,3.80
2022-11-22T00:20:08.899Z,3.80
2022-11-22T00:22:41.118Z,3.80
2022-11-22T00:25:11.133Z,3.80
2022-11-22T00:27:37.917Z,3.80
2022-11-22T00:30:05.513Z,3.80
2022-11-22T00:32:32.381Z,3.80
2022-11-22T00:34:59.169Z,3.80
2022-11-22T00:37:26.010Z,3.80
2022-11-22T00:39:52.999Z,3.90
2022-11-22T00:42:19.971Z,3.90
2022-11-22T00:44:47.019Z,3.90
2022-11-22T00:47:13.842Z,3.90
2022-11-22T00:49:40.605Z,3.90
2022-11-22T00:52:07.410Z,3.90
2022-11-22T00:54:34.253Z,3.90
2022-11-22T00:57:01.036Z,4.00
2022-11-22T00:59:28.272Z,4.00
2022-11-22T01:01:55.269Z,4.00
2022-11-22T01:04:22.111Z,4.00
2022-11-22T01:06:48.921Z,4.00
2022-11-22T01:09:21.318Z,4.00
2022-11-22T01:11:49.036Z,4.00
2022-11-22T01:14:16.756Z,4.00
2022-11-22T01:16:43.669Z,4.00
2022-11-22T01:19:10.817Z,4.00
2022-11-22T01:21:38.092Z,4.00
2022-11-22T01:24:05.071Z,4.00
2022-11-22T01:26:33.133Z,4.00
2022-11-22T01:29:00.094Z,4.00
2022-11-22T01:31:26.879Z,4.00
2022-11-22T01:33:53.641Z,4.00
2022-11-22T01:36:20.411Z,3.90
2022-11-22T01:38:47.293Z,3.80
2022-11-22T01:41:14.232Z,3.80
2022-11-22T01:43:41.107Z,3.80
2022-11-22T01:46:16.141Z,3.70
2022-11-22T01:49:10.126Z,3.70
2022-11-22T01:51:44.078Z,3.70
2022-11-22T01:54:15.844Z,3.80
2022-11-22T01:56:46.170Z,3.70
2022-11-22T01:59:16.037Z,3.70
2022-11-22T02:01:43.667Z,3.70
2022-11-22T02:04:13.776Z,3.70
2022-11-22T02:07:02.787Z,3.80
2022-11-22T02:09:30.420Z,3.80
2022-11-22T02:12:01.096Z,3.80
2022-11-22T02:14:28.810Z,3.80
2022-11-22T02:16:56.103Z,3.80
2022-11-22T02:19:47.308Z,3.80
2022-11-22T02:22:25.399Z,3.70
2022-11-22T02:25:36.268Z,3.70
2022-11-22T02:28:07.255Z,3.60
2022-11-22T02:30:36.424Z,3.60
2022-11-22T02:33:03.468Z,3.50
2022-11-22T02:35:30.690Z,3.50
2022-11-22T02:38:03.160Z,3.50
2022-11-22T02:40:36.694Z,3.40
2022-11-22T02:43:08.285Z,3.30
2022-11-22T02:45:35.087Z,3.20
2022-11-22T02:48:09.159Z,3.20
2022-11-22T02:50:36.338Z,3.20
2022-11-22T02:53:04.537Z,3.20
2022-11-22T02:55:32.315Z,3.20
2022-11-22T02:57:59.255Z,3.10
2022-11-22T03:00:26.399Z,3.20
2022-11-22T03:02:53.319Z,3.20
2022-11-22T03:05:20.550Z,3.20
2022-11-22T03:07:47.427Z,3.30
2022-11-22T03:10:14.592Z,3.40
2022-11-22T03:12:41.586Z,3.40
2022-11-22T03:15:08.602Z,3.40
2022-11-22T03:17:35.384Z,3.40
2022-11-22T03:20:02.252Z,3.40
2022-11-22T03:22:29.016Z,3.40
2022-11-22T03:24:55.843Z,3.50
2022-11-22T03:27:22.744Z,3.50
2022-11-22T03:29:49.515Z,3.50
2022-11-22T03:32:16.430Z,3.50
2022-11-22T03:34:43.397Z,3.50
2022-11-22T03:37:10.213Z,3.60
2022-11-22T03:39:36.994Z,3.60
2022-11-22T03:42:03.873Z,3.60
2022-11-22T03:44:30.645Z,3.60
2022-11-22T03:46:57.387Z,3.60
2022-11-22T03:49:24.279Z,3.60
2022-11-22T03:51:51.474Z,3.60
2022-11-22T03:54:18.229Z,3.50
2022-11-22T03:56:44.993Z,3.60
2022-11-22T03:59:11.945Z,3.50
2022-11-22T04:01:38.896Z,3.60
2022-11-22T04:04:05.811Z,3.60
2022-11-22T04:06:32.811Z,3.60
2022-11-22T04:08:59.779Z,3.60
2022-11-22T04:11:26.996Z,3.60
2022-11-22T04:14:12.256Z,3.70
2022-11-22T04:16:39.652Z,3.70
2022-11-22T04:19:06.791Z,3.70
2022-11-22T04:21:36.457Z,3.50
2022-11-22T04:24:29.801Z,3.50
2022-11-22T04:26:57.410Z,3.50
2022-11-22T04:29:24.245Z,3.40
2022-11-22T04:32:10.130Z,3.40
2022-11-22T04:34:37.421Z,3.40
2022-11-22T04:37:04.899Z,3.40
2022-11-22T04:39:32.169Z,3.40
2022-11-22T04:42:17.748Z,3.40
2022-11-22T04:44:45.355Z,3.40
2022-11-22T04:47:34.798Z,3.20
2022-11-22T04:50:27.120Z,3.20
2022-11-22T04:52:55.684Z,3.30
2022-11-22T04:55:22.858Z,3.30
2022-11-22T04:57:52.071Z,3.30
2022-11-22T05:00:22.955Z,3.30
2022-11-22T05:02:49.748Z,3.30
2022-11-22T05:05:16.630Z,3.30
2022-11-22T05:07:43.440Z,3.30
2022-11-22T05:10:11.952Z,3.20
2022-11-22T05:12:40.142Z,3.20
2022-11-22T05:15:07.800Z,3.10
2022-11-22T05:17:34.654Z,3.10
2022-11-22T05:20:01.658Z,3.10
2022-11-22T05:22:47.333Z,3.20
2022-11-22T05:25:14.213Z,3.20
2022-11-22T05:27:40.991Z,3.20
2022-11-22T05:30:08.125Z,3.10
2022-11-22T05:32:35.156Z,3.20
2022-11-22T05:35:02.021Z,3.20
2022-11-22T05:37:29.302Z,3.20
2022-11-22T05:39:56.134Z,3.10
2022-11-22T05:42:22.930Z,3.10
2022-11-22T05:44:49.719Z,3.20
2022-11-22T05:47:16.463Z,3.10
2022-11-22T05:49:46.044Z,3.10
2022-11-22T05:52:13.232Z,3.10
2022-11-22T05:54:40.091Z,3.10
2022-11-22T05:57:07.282Z,3.10
2022-11-22T05:59:34.247Z,3.00
2022-11-22T06:02:01.037Z,3.00
2022-11-22T06:04:27.807Z,3.00
2022-11-22T06:06:54.684Z,3.00
2022-11-22T06:09:22.825Z,3.00
2022-11-22T06:11:50.054Z,3.00
2022-11-22T06:14:16.863Z,3.00
2022-11-22T06:16:43.894Z,3.00
2022-11-22T06:19:10.997Z,3.00
2022-11-22T06:21:37.810Z,3.00
2022-11-22T06:24:04.925Z,3.00
2022-11-22T06:26:37.630Z,3.00
2022-11-22T06:29:06.159Z,3.00
2022-11-22T06:31:33.545Z,3.00
2022-11-22T06:34:00.768Z,3.00
2022-11-22T06:36:30.544Z,3.00
2022-11-22T06:38:57.963Z,3.00
2022-11-22T06:41:27.022Z,3.00
2022-11-22T06:43:56.448Z,3.00
2022-11-22T06:46:25.604Z,3.00
2022-11-22T06:48:52.568Z,3.50
2022-11-22T06:51:25.734Z,3.80
2022-11-22T06:53:56.620Z,4.00
2022-11-22T06:56:24.777Z,4.00
2022-11-22T06:58:53.373Z,3.90
2022-11-22T07:01:22.431Z,3.60
2022-11-22T07:03:49.738Z,3.40
2022-11-22T07:06:18.937Z,3.30
2022-11-22T07:08:46.386Z,3.20
2022-11-22T07:14:06.989Z,3.10
2022-11-22T07:16:36.072Z,3.10
2022-11-22T07:19:02.953Z,3.00
2022-11-22T07:21:29.849Z,3.00
2022-11-22T07:23:56.697Z,3.00
2022-11-22T07:26:25.909Z,3.00
2022-11-22T07:28:53.320Z,3.00
2022-11-22T07:31:20.809Z,3.00
2022-11-22T07:33:47.789Z,3.00
2022-11-22T07:36:20.484Z,2.90
2022-11-22T07:38:48.508Z,3.00
2022-11-22T07:41:16.159Z,3.00
2022-11-22T07:43:43.697Z,3.00
2022-11-22T07:46:37.054Z,3.00
2022-11-22T07:49:03.823Z,3.10
2022-11-22T07:51:30.798Z,3.10
2022-11-22T07:54:00.306Z,3.10
2022-11-22T07:56:27.091Z,3.20
2022-11-22T07:58:55.074Z,3.20
2022-11-22T08:01:21.912Z,3.20
2022-11-22T08:03:49.242Z,3.30
2022-11-22T08:06:16.581Z,3.30
2022-11-22T08:08:44.014Z,3.30
2022-11-22T08:11:11.723Z,3.40
2022-11-22T08:13:38.628Z,3.40
2022-11-22T08:16:11.692Z,3.40
2022-11-22T08:18:39.489Z,3.40
2022-11-22T08:21:08.545Z,3.50
2022-11-22T08:23:35.839Z,3.50
2022-11-22T08:26:03.626Z,3.50
2022-11-22T08:28:30.625Z,3.60
2022-11-22T08:31:08.974Z,3.60
2022-11-22T08:33:36.046Z,3.60
2022-11-22T08:36:03.335Z,3.60
2022-11-22T08:38:30.486Z,3.70
2022-11-22T08:40:57.475Z,3.70
2022-11-22T08:43:24.506Z,3.70
2022-11-22T08:45:57.327Z,3.80
2022-11-22T08:48:28.094Z,3.80
2022-11-22T08:51:03.156Z,3.90
2022-11-22T08:53:32.680Z,4.00
2022-11-22T08:56:00.961Z,4.00
2022-11-22T08:58:30.225Z,4.10
2022-11-22T09:00:57.416Z,4.20
2022-11-22T09:03:24.324Z,4.30
2022-11-22T09:08:40.493Z,4.50
2022-11-22T09:11:12.824Z,4.60
2022-11-22T09:13:40.572Z,4.50
2022-11-22T09:16:19.060Z,4.70
2022-11-22T09:18:47.183Z,4.90
2022-11-22T09:21:17.965Z,5.00
2022-11-22T09:23:46.800Z,5.10
2022-11-22T09:26:16.322Z,4.90
2022-11-22T09:28:43.850Z,4.90
2022-11-22T09:31:12.183Z,4.80
2022-11-22T09:33:40.611Z,4.90
2022-11-22T09:36:13.857Z,4.80
2022-11-22T09:38:40.958Z,4.80
2022-11-22T09:41:46.285Z,5.00
2022-11-22T09:44:45.329Z,4.90
2022-11-22T09:47:24.679Z,5.00
2022-11-22T09:50:23.186Z,5.10
2022-11-22T09:52:57.035Z,5.10
2022-11-22T09:55:33.363Z,5.20
2022-11-22T09:58:21.406Z,5.40
2022-11-22T10:00:52.271Z,5.40
2022-11-22T10:03:42.485Z,5.40
2022-11-22T10:06:19.243Z,5.30
2022-11-22T10:09:21.990Z,5.20
2022-11-22T10:11:52.187Z,5.30
2022-11-22T10:14:54.105Z,5.30
2022-11-22T10:17:37.251Z,5.30
2022-11-22T10:20:18.605Z,5.20
2022-11-22T10:22:46.098Z,5.30
2022-11-22T10:25:21.931Z,5.40
2022-11-22T10:28:00.788Z,5.50
2022-11-22T10:30:34.781Z,5.60
2022-11-22T10:33:15.213Z,5.50
2022-11-22T10:36:13.112Z,5.50
2022-11-22T10:38:47.741Z,5.70
2022-11-22T10:41:35.086Z,5.80
2022-11-22T10:44:01.872Z,5.80
2022-11-22T10:46:56.922Z,5.70
2022-11-22T10:49:45.422Z,5.80
2022-11-22T10:52:37.305Z,5.80
2022-11-22T10:55:26.815Z,5.70
2022-11-22T10:58:16.754Z,5.80
2022-11-22T11:00:51.563Z,5.80
2022-11-22T11:03:32.428Z,5.90
2022-11-22T11:06:38.046Z,5.80
2022-11-22T11:12:10.387Z,5.70
2022-11-22T11:14:44.472Z,5.70
2022-11-22T11:17:17.648Z,5.90
2022-11-22T11:19:49.614Z,6.00
2022-11-22T11:22:31.606Z,5.90
2022-11-22T11:25:29.160Z,5.90
2022-11-22T11:27:59.679Z,5.80
2022-11-22T11:30:26.565Z,5.80
2022-11-22T11:32:57.224Z,5.90
2022-11-22T11:35:28.943Z,5.80
2022-11-22T11:37:56.281Z,5.70
2022-11-22T11:40:29.001Z,5.60
2022-11-22T11:43:19.761Z,5.50
2022-11-22T11:45:47.109Z,5.50
2022-11-22T11:48:41.301Z,5.70
2022-11-22T11:51:20.605Z,5.70
2022-11-22T11:53:57.661Z,5.80
2022-11-22T11:56:30.061Z,5.90
2022-11-22T11:58:59.317Z,5.80
2022-11-22T12:01:26.969Z,5.70
2022-11-22T12:04:01.763Z,5.70
2022-11-22T12:06:30.701Z,5.80
2022-11-22T12:08:58.671Z,6.00
2022-11-22T12:11:41.664Z,5.90
2022-11-22T12:14:20.127Z,5.80
2022-11-22T12:16:50.374Z,5.80
2022-11-22T12:19:47.933Z,5.90
2022-11-22T12:22:48.891Z,5.90
2022-11-22T12:25:33.700Z,5.70
2022-11-22T12:28:24.328Z,5.80
2022-11-22T12:34:10.978Z,5.80
2022-11-22T12:36:50.978Z,5.80
2022-11-22T12:39:25.621Z,5.90
2022-11-22T12:42:21.591Z,6.00
2022-11-22T12:45:07.687Z,6.00
2022-11-22T12:47:41.667Z,6.00
2022-11-22T12:48:22.534Z,5.90
2022-11-22T12:50:18.835Z,5.90
2022-11-22T12:52:51.623Z,5.90
2022-11-22T12:55:23.854Z,6.00
2022-11-22T12:58:07.753Z,6.10
2022-11-22T13:00:44.653Z,6.30
2022-11-22T13:03:13.094Z,6.20
2022-11-22T13:05:54.232Z,6.20
2022-11-22T13:08:51.536Z,6.10
2022-11-22T13:11:50.344Z,6.10
2022-11-22T13:14:23.654Z,6.20
2022-11-22T13:16:51.137Z,6.30
2022-11-22T13:19:22.729Z,6.20
2022-11-22T13:22:08.733Z,6.10
2022-11-22T13:25:02.111Z,6.20
2022-11-22T13:27:36.401Z,6.30
2022-11-22T13:30:04.436Z,6.10
2022-11-22T13:32:36.025Z,6.10
2022-11-22T13:35:11.951Z,6.10
2022-11-22T13:37:45.509Z,6.20
2022-11-22T13:40:15.499Z,6.10
2022-11-22T13:42:43.190Z,5.90
2022-11-22T13:45:24.308Z,5.90
2022-11-22T13:47:52.309Z,5.80
2022-11-22T13:50:41.261Z,5.70
2022-11-22T13:53:24.237Z,5.70
2022-11-22T13:55:51.513Z,5.70
2022-11-22T13:58:24.245Z,5.80
2022-11-22T14:00:53.158Z,5.90
2022-11-22T14:03:33.743Z,5.80
2022-11-22T14:06:13.968Z,5.80
2022-11-22T14:08:41.453Z,5.80
2022-11-22T14:11:13.196Z,5.70
2022-11-22T14:13:58.232Z,5.70
2022-11-22T14:16:52.949Z,5.80
2022-11-22T14:19:28.806Z,5.90
2022-11-22T14:21:55.959Z,5.90
2022-11-22T14:25:17.652Z,5.90
2022-11-22T14:27:56.475Z,6.00
2022-11-22T14:30:40.626Z,6.00
2022-11-22T14:33:19.294Z,5.90
2022-11-22T14:36:04.443Z,5.80
2022-11-22T14:38:32.859Z,5.80
2022-11-22T14:41:27.911Z,5.80
2022-11-22T14:44:16.003Z,5.70
2022-11-22T14:46:55.874Z,5.70
2022-11-22T14:49:44.790Z,5.60
2022-11-22T14:52:23.456Z,5.60
2022-11-22T14:54:58.001Z,5.50
2022-11-22T14:57:27.545Z,5.50
2022-11-22T15:00:09.564Z,5.40
2022-11-22T15:03:04.193Z,5.50
2022-11-22T15:09:14.566Z,5.40
2022-11-22T15:09:14.913Z,5.40
2022-11-22T15:11:57.245Z,5.40
2022-11-22T15:14:35.680Z,5.30
2022-11-22T15:59:44.903Z,4.90
2022-11-22T16:02:25.280Z,4.90
2022-11-22T16:06:09.245Z,4.90
2022-11-22T16:07:49.706Z,4.90
2022-11-22T16:10:28.018Z,4.90
2022-11-22T16:12:54.838Z,4.90
2022-11-22T16:15:37.120Z,4.90
2022-11-22T16:18:14.788Z,4.90
2022-11-22T16:21:00.575Z,4.80
2022-11-22T16:23:29.686Z,4.80
2022-11-22T16:26:21.804Z,4.90
2022-11-22T16:28:53.876Z,4.80
2022-11-22T16:31:26.632Z,4.80
2022-11-22T16:33:55.220Z,4.80
2022-11-22T16:36:24.053Z,4.80
2022-11-22T16:38:51.484Z,4.80
2022-11-22T16:41:26.509Z,4.80
2022-11-22T16:43:56.302Z,4.80
2022-11-22T16:46:23.142Z,4.80
2022-11-22T16:48:50.546Z,4.70
2022-11-22T16:51:23.259Z,4.70
2022-11-22T16:53:51.755Z,4.70
2022-11-22T16:56:19.556Z,4.60
2022-11-22T16:58:48.704Z,4.60
2022-11-22T17:01:19.052Z,4.50
2022-11-22T17:03:48.029Z,4.50
2022-11-22T17:06:21.045Z,4.50
2022-11-22T17:08:49.816Z,4.30
2022-11-22T17:11:19.041Z,4.30
2022-11-22T17:13:46.455Z,4.20
2022-11-22T17:16:14.137Z,4.20
2022-11-22T17:18:41.257Z,4.20
2022-11-22T17:21:20.644Z,4.10
2022-11-22T17:23:48.435Z,4.10
2022-11-22T17:26:15.296Z,4.10
2022-11-22T17:28:42.148Z,4.00
2022-11-22T17:31:14.292Z,3.90
2022-11-22T17:33:41.625Z,3.90
2022-11-22T17:36:22.056Z,3.80
2022-11-22T17:38:49.016Z,3.80
2022-11-22T17:41:16.234Z,3.80
2022-11-22T17:43:43.119Z,3.70
2022-11-22T17:46:10.361Z,3.70
2022-11-22T17:48:37.479Z,3.70
2022-11-22T17:51:09.190Z,3.60
2022-11-22T17:53:36.373Z,3.60
2022-11-22T17:56:10.421Z,3.50
2022-11-22T17:58:37.877Z,3.50
2022-11-22T18:01:13.480Z,3.40
2022-11-22T18:03:41.187Z,3.40
2022-11-22T18:06:09.342Z,3.40
2022-11-22T18:08:36.619Z,3.30
2022-11-22T18:11:04.435Z,3.30
2022-11-22T18:13:37.097Z,3.30
2022-11-22T18:16:07.729Z,3.30
2022-11-22T18:21:26.666Z,3.30
2022-11-22T18:23:53.561Z,3.20
2022-11-22T18:26:38.810Z,3.10
2022-11-22T18:31:54.491Z,3.20
2022-11-22T18:34:22.890Z,3.30
2022-11-22T18:37:01.931Z,3.30
2022-11-22T18:39:40.448Z,3.30
2022-11-22T18:42:11.956Z,3.40
2022-11-22T18:44:38.953Z,3.30
2022-11-22T18:47:05.921Z,3.40
2022-11-22T18:49:33.235Z,3.40
2022-11-22T18:52:00.706Z,3.30
2022-11-22T18:54:27.478Z,3.20
2022-11-22T18:56:54.621Z,3.20
2022-11-22T18:59:21.663Z,3.20
2022-11-22T19:01:48.509Z,3.10
2022-11-22T19:04:16.197Z,3.00
2022-11-22T19:06:43.862Z,3.00
2022-11-22T19:09:11.355Z,3.00
2022-11-22T19:11:38.717Z,3.00
2022-11-22T19:14:06.094Z,3.00
2022-11-22T19:16:33.226Z,3.00
2022-11-22T19:19:00.132Z,2.80
2022-11-22T19:21:29.777Z,2.70
2022-11-22T19:23:57.387Z,2.50
2022-11-22T19:26:26.538Z,2.40
2022-11-22T19:28:56.526Z,2.30
2022-11-22T19:31:29.119Z,2.20
2022-11-22T19:33:56.772Z,2.20
2022-11-22T19:36:32.199Z,2.10
2022-11-22T19:39:00.936Z,2.20
2022-11-22T19:41:28.812Z,2.10
2022-11-22T19:43:56.295Z,2.20
2022-11-22T19:46:24.263Z,2.30
2022-11-22T19:48:52.798Z,2.40
2022-11-22T19:51:19.961Z,2.50
2022-11-22T19:53:47.175Z,2.50
2022-11-22T19:56:18.496Z,2.50
2022-11-22T19:58:51.466Z,2.50
2022-11-22T20:01:19.191Z,2.50
2022-11-22T20:03:46.506Z,2.50
2022-11-22T20:06:14.371Z,2.50
2022-11-22T20:08:41.369Z,2.50
2022-11-22T20:11:13.906Z,2.50
2022-11-22T20:13:43.353Z,2.50
2022-11-22T20:16:21.110Z,2.50
2022-11-22T20:18:52.619Z,2.60
2022-11-22T20:21:22.261Z,2.60
2022-11-22T20:23:50.623Z,2.70
2022-11-22T20:26:17.907Z,2.60
2022-11-22T20:28:45.969Z,2.60
2022-11-22T20:31:13.178Z,2.60
2022-11-22T20:33:42.632Z,2.60
2022-11-22T20:36:12.533Z,2.50
2022-11-22T20:38:41.289Z,2.40
2022-11-22T20:41:09.170Z,2.40
2022-11-22T20:43:36.673Z,2.40
2022-11-22T20:46:12.824Z,2.50
2022-11-22T20:48:41.234Z,2.50
2022-11-22T20:51:10.324Z,2.40
2022-11-22T20:53:37.438Z,2.40
2022-11-22T20:56:05.248Z,2.40
2022-11-22T20:58:32.568Z,2.30
2022-11-22T21:01:04.257Z,2.20
2022-11-22T21:03:31.308Z,2.20
2022-11-22T21:05:58.341Z,2.20
2022-11-22T21:08:25.357Z,2.30
2022-11-22T21:10:52.523Z,2.20
2022-11-22T21:13:19.617Z,2.20
2022-11-22T21:15:46.582Z,2.20
2022-11-22T21:18:29.149Z,2.20
2022-11-22T21:21:08.321Z,2.30
2022-11-22T21:23:36.254Z,2.30
2022-11-22T21:26:04.770Z,2.30
2022-11-22T21:28:36.086Z,2.30
2022-11-22T21:31:03.897Z,2.40
2022-11-22T21:33:32.856Z,2.40
2022-11-22T21:36:00.648Z,2.40
2022-11-22T21:38:31.086Z,2.40
2022-11-22T21:41:23.941Z,2.40
2022-11-22T21:43:50.616Z,2.30
2022-11-22T21:46:18.407Z,2.20
2022-11-22T21:48:45.407Z,2.20
2022-11-22T21:51:12.207Z,2.20
2022-11-22T21:53:39.055Z,2.20
2022-11-22T21:56:06.162Z,2.10
2022-11-22T21:58:33.201Z,2.00
2022-11-22T22:01:08.225Z,1.90
2022-11-22T22:03:37.867Z,1.90
2022-11-22T22:06:04.672Z,1.80
2022-11-22T22:08:31.864Z,1.70
2022-11-22T22:10:58.928Z,1.70
2022-11-22T22:13:26.064Z,1.70
2022-11-22T22:15:58.255Z,1.80
2022-11-22T22:18:30.814Z,1.70
2022-11-22T22:21:04.136Z,1.70
2022-11-22T22:23:32.185Z,1.80
2022-11-22T22:26:04.666Z,1.90
2022-11-22T22:28:33.136Z,1.80
2022-11-22T22:31:15.773Z,1.80
2022-11-22T22:33:43.151Z,1.80
2022-11-22T22:36:11.033Z,1.70
2022-11-22T22:38:38.478Z,1.60
2022-11-22T22:41:06.642Z,1.60
2022-11-22T22:43:35.580Z,1.50
2022-11-22T22:46:06.441Z,1.50
2022-11-22T22:48:34.191Z,1.50
2022-11-22T22:51:08.675Z,1.40
2022-11-22T22:53:35.662Z,1.40
2022-11-22T22:56:02.916Z,1.40
2022-11-22T22:58:29.752Z,1.50
2022-11-22T23:01:15.050Z,1.40
2022-11-22T23:03:42.210Z,1.50
2022-11-22T23:06:11.792Z,1.50
2022-11-22T23:08:39.391Z,1.50
2022-11-22T23:11:10.860Z,1.50
2022-11-22T23:13:39.641Z,1.50
2022-11-22T23:16:08.302Z,1.50
2022-11-22T23:18:37.089Z,1.60
2022-11-22T23:21:06.503Z,1.70
2022-11-22T23:23:34.188Z,1.80
2022-11-22T23:26:03.262Z,1.80
2022-11-22T23:28:30.469Z,1.90
2022-11-22T23:31:03.240Z,2.00
2022-11-22T23:33:30.066Z,2.00
2022-11-22T23:36:07.094Z,2.10
2022-11-22T23:38:33.974Z,2.10
2022-11-22T23:41:01.203Z,2.10
2022-11-22T23:43:29.001Z,2.20
2022-11-22T23:45:56.167Z,2.20
2022-11-22T23:48:22.946Z,2.20
2022-11-22T23:50:49.808Z,2.20
2022-11-22T23:53:16.594Z,2.20
2022-11-22T23:55:43.787Z,2.20
2022-11-22T23:58:10.629Z,2.20
